METARS
Date METAR Location Area
25/07/2014 LGY7 251430Z 09008KT 32/19 Q1007 Aegina Attica
25/07/2014 LGH5 251430Z 04502KT 31/20 Q1007 Ampelokipoi Attica
25/07/2014 LGS5 251430Z 04503KT 33/18 Q1005 Anavissos Attica
25/07/2014 LGO0 251430Z 04506KT 31/18 Q1007 Ano Liosia Attica
25/07/2014 LGB9 251430Z 22502KT 32/20 Q1009 Athens - Gazi Attica
25/07/2014 LGL5 251330Z 04508KT 29/18 Q1007 Ekali Attica
25/07/2014 LGS3 251430Z 22502KT 31/22 Q1007 Faliro Attica
25/07/2014 LGI4 250200Z 00000G31104KT 248/180 Q10077 Hydra Attica
24/07/2014 LGM3 242030Z 20302KT 26/20 Q1010 Hydra Attica
25/07/2014 LGO2 251330Z 06806KT 23/18 Q1008 Imittos Attica
25/07/2014 LGT8 251430Z 06802KT 27/17 Q1009 Ippokratios Attica
25/07/2014 LG99 251430Z 02304KT 30/19 Q1008 Kantza Attica
24/07/2014 LG13 242100Z 00000KT 23/19 Q1010 Kifissia Attica
25/07/2014 LGD6 251430Z 00007KT 30/22 Q1007 Lavrio Attica
25/07/2014 LGK0 251430Z 04508KT 30/18 Q1008 Marousi Attica
25/07/2014 LG00 251510Z 03004KT 29/17 Q1008 Marousi (Anavrita) Attica
25/07/2014 LGR0 251430Z 11305KT 31/19 Q1008 Nea Smirni Attica
25/07/2014 LGM8 251330Z 24803KT 31/20 Q1009 Neos Kosmos Attica
25/07/2014 LGA3 251507Z 07003KT 29/16 Q1008 Pallini - Kantza 2 Attica
25/07/2014 LGK3 251430Z 02309KT 21/15 Q1009 Parnitha 1230 EAA Attica
25/07/2014 LGT6 251430Z 06803KT 31/18 Q1008 Patissia Attica
25/07/2014 LGX9 251430Z 02308KT 28/17 Q1006 Penteli Attica
25/07/2014 LG67 251500Z 1356102G14796KT 286/193 Q10083 Penteli Attica
25/07/2014 LGU0 251430Z 20306KT 31/19 Q1008 Peristeri Attica
25/07/2014 LGY6 251430Z 06811G24KT 30/20 Q1008 Porto Rafti Attica
25/07/2014 LG96 251430Z 04505KT 31/20 Q1008 Psychico Attica
23/07/2014 LGZ0 230530Z 02301KT 26/18 Q1004 Rafina Attica
24/07/2014 LGG2 240730Z 09005KT 29/20 Q1006 Spata Attica
25/07/2014 LGS6 251430Z 13507KT 30/19 Q1008 Spetses Attica
25/07/2014 LGZ2 251430Z 04508KT 31/18 Q1008 Vari Attica
25/07/2014 LGR6 251430Z 00004KT 30/14 Q1008 Vilia Attica
25/07/2014 LG74 250200Z 00000KT 248/192 Q10076 Ymittos Attica
25/07/2014 LGG1 251500Z 0456966G19116KT 297/169 Q352 Kalivia Thorikou Attica E
25/07/2014 LG45 251230Z 09010G23KT 30/22 Q1011 Markopoulo Attica E
25/07/2014 LG72 250510Z 00000KT 229/197 Q10061 Keratea Attica SE
25/07/2014 LGW4 251430Z 20304KT 25/15 Q1006 Ag. Ioannis Sfakion Crete
25/07/2014 LGJ9 251430Z 29310KT 29/20 Q1007 Aghios Nikolaos Crete
25/07/2014 LGT4 251430Z 00005KT 29/20 Q1008 Alikianos Crete
25/07/2014 LGB6 251430Z 29309KT 23/17 Q1005 Anogeia Crete
23/07/2014 LGZ6 231830Z 22503KT 20/17 Q1009 Askyfou Crete
25/07/2014 LG25 251430Z 27005KT 29/21 Q1008 Chania Crete
25/07/2014 LGN3 251430Z 31503KT 28/22 Q1009 Chania Center Crete
25/07/2014 LG61 251430Z 33811KT 28/22 Q1007 Cost - Irakleio Crete
25/07/2014 LGL9 251430Z 27013KT 28/21 Q1007 Falasarna Crete
25/07/2014 LGL1 251430Z 33817KT 26/16 Q1006 Fourfouras Crete
30/06/2014 LGD4 300800Z 33807KT 26/15 Q1012 Fragmapotamon - Rethymno Crete
25/07/2014 LG30 251430Z 31509KT 28/19 Q1008 Heraklion - Knossos Crete
25/07/2014 LG95 251430Z 02308G21KT 30/19 Q1007 Ierapetra Crete
17/07/2014 LGP0 171030Z 22507KT 26/20 Q1012 Lentas Hrakleion Crete
25/07/2014 LGD7 251430Z 27007KT 27/18 Q1007 Metaxochori - Heraklion Crete
25/07/2014 LGI2 251430Z 29304KT 33/16 Q1005 Mires Crete
25/07/2014 LG36 251430Z 33804KT 31/18 Q1006 Paleochora Crete
21/07/2014 LG8A 211500Z 04510422G17388KT 268/161 Q10038 Pirathi Heraklion Crete
25/07/2014 LG58 251430Z 31509KT 27/23 Q1007 Rethymno Crete
25/07/2014 LGT2 251430Z 33810G23KT 30/19 Q1006 Rethymno - Plakia Crete
25/07/2014 LGB4 251430Z 31510KT 20/15 Q1008 Samaria Crete
25/07/2014 LGY1 251430Z 27003G14KT 29/15 Q1007 Samaria Crete
25/07/2014 LGM2 251430Z 29308KT 28/21 Q1006 Sitia Crete
25/07/2014 LG75 251430Z 31506KT 26/19 Q1009 Spili - Rethymnon Crete
25/07/2014 LG50 251430Z 00001KT 22/17 Q1008 Tzermiado Lasithi Crete
25/07/2014 LG70 251430Z 29305KT 30/17 Q1007 Vrysses Crete
25/07/2014 LGT5 251430Z 20305KT 26/22 Q1006 Amorgos Cyclades
25/07/2014 LGN6 251430Z 04510G21KT 30/18 Q1008 Andros Cyclades
25/07/2014 LGS7 251430Z 33818KT 27/22 Q1006 Donoussa Cyclades
25/07/2014 LGI0 251430Z 00016KT 28/20 Q1008 Ios Cyclades
25/07/2014 LGP2 251430Z 04511KT 25/18 Q1010 Ioulida - Kea Cyclades
25/07/2014 LGP5 251430Z 31506KT 30/20 Q1006 Iraklia Cyclades
25/07/2014 LGE3 251430Z 02306KT 26/21 Q1009 Kea Cyclades
25/07/2014 LGX8 251430Z 02310KT 29/19 Q1006 Koufonissia Cyclades
25/07/2014 LGS0 251430Z 04509KT 28/21 Q1009 Milos Cyclades
25/07/2014 LG66 251430Z 00020KT 26/21 Q1007 Mykonos Cyclades
25/07/2014 LGM0 251430Z 02316KT 27/22 Q1007 Naxos Cyclades
25/07/2014 LGV3 251430Z 00000KT -RA 20/17 Q1009 Naxos - Apiranthos Cyclades
30/06/2014 LGT0 301300Z 31508KT 23/19 Q1013 Naxos - Apollonas Cyclades
25/07/2014 LGU1 251430Z 02304KT 27/19 Q1007 Naxos - Damarionas Cyclades
25/07/2014 LGU2 251430Z 31509KT 23/18 Q1007 Naxos - Koronos Cyclades
12/07/2014 LGN7 120800Z 29304G15KT 24/11 Q1013 Naxos - Kynidaros Cyclades
25/07/2014 LGW1 251430Z 31510G21KT 27/21 Q1007 Naxos - Melanes Cyclades
25/07/2014 LGO7 251430Z 33820KT 27/22 Q1007 Naxos - Mikri Vigla Cyclades
25/07/2014 LG02 251430Z 00016KT 28/22 Q1008 Paros Cyclades
22/07/2014 LGX5 222330Z 24808G19KT 23/22 Q1005 Santorini Cyclades
25/07/2014 LGX7 251430Z 04508KT 29/19 Q1006 Schinoussa Cyclades
07/07/2014 LG07 070630Z 00000KT 255/97 Q10099 Tinos Cyclades
20/07/2014 LGB8 200230Z 33808KT 24/20 Q1010 Tinos NOA Cyclades
25/07/2014 LGAB 251430Z 24806KT 27/18 Q1003 Emponas - Rhodes Dodecanese
25/07/2014 LGG6 251430Z 27008KT 30/19 Q1005 Kalymnos Dodecanese
25/07/2014 LGAC 251430Z 29311KT 27/22 Q1003 Kattavia - Rhodes Dodecanese
25/07/2014 LGAA 251430Z 13503KT 32/20 Q1004 Lindos - Rhodes Dodecanese
25/07/2014 LG65 251430Z 29309KT 29/21 Q1005 Patmos Dodecanese
25/07/2014 LGS9 251430Z 24807KT 28/20 Q1005 Rhodes Dodecanese
25/07/2014 LGM5 251430Z 29312KT 26/23 Q1006 Kasos Dodecanisa
25/07/2014 LGX1 251430Z 29310KT 29/20 Q1004 Kos Dodekanissa
25/07/2014 LG4A 251430Z 33807KT 32/16 Q1005 Chios East Aegean
25/07/2014 LGT1 251430Z 31511KT 28/21 Q1004 Fournoi East Aegean
25/07/2014 LGI9 251430Z 29304KT 25/20 Q1006 Ikaria East Aegean
25/07/2014 LGI5 251430Z 00005KT 30/19 Q1007 Lemnos East Aegean
25/07/2014 LGI6 251330Z 33813KT 27/22 Q1006 Lesvos East Aegean
25/07/2014 LGJ3 251430Z 00007KT 31/19 Q1007 Lesvos - Thermi East Aegean
23/07/2014 LGZ7 230830Z 18007KT 30/19 Q1005 Mantamados East Aegean
25/07/2014 LGY5 251430Z 00006KT 32/15 Q1008 Molyvos East Aegean
25/07/2014 LGF1 251430Z 27003KT 30/21 Q1004 Samos East Aegean
25/07/2014 LGW7 251430Z 00023KT 27/18 Q1003 Akrotirio Paksimada Evia
25/07/2014 LGO3 251430Z 04510KT 30/16 Q1006 Chalkida Evia
25/07/2014 LGR5 251330Z 00017KT 24/21 Q1008 Kavodoro Evia
09/07/2014 LGY0 090700Z 11300KT 09/05 Q1034 Krieza Evia
25/07/2014 LGX0 251430Z 33803KT 28/19 Q1011 Kymi Evia
25/07/2014 LGT7 251000Z 27004KT 09/07 Q1011 Setta Evia
25/07/2014 LG81 251430Z 04510KT 26/18 Q1008 Steni Evia
18/07/2014 LGC4 181830Z 09003KT 25/19 Q1011 Styra Evia
25/07/2014 LGD3 251430Z 06808KT 28/20 Q1009 Zarakes Evia
25/07/2014 LGP6 251430Z 29304KT 23/19 Q1012 Agia Kyriaki Ioanninon Hepirus
25/07/2014 LGO1 251430Z 11301KT 31/19 Q1009 Aridaia Hepirus
24/07/2014 LGD2 241030Z 18003KT 28/19 Q1009 Arta - Kompoti Hepirus
25/07/2014 LG38 251430Z 00005KT 28/19 Q1009 Arta - Vlacherna Hepirus
03/07/2014 LGE4 031830Z 33810KT 20/11 Q1017 Aspraggeloi Hepirus
25/07/2014 LGI3 251430Z 06804KT 27/15 Q1010 Derviziana Hepirus
25/07/2014 LGP4 251430Z 04502KT 22/17 Q1010 Dodoni Hepirus
02/07/2014 LGL8 021430Z 02304KT 24/07 Q1015 Grammos Hepirus
25/07/2014 LG43 251430Z 24804KT 31/20 Q1008 Igoumenitsa Hepirus
25/07/2014 LG49 251430Z 13500KT 21/20 Q1010 Ioannina Anatoli Hepirus
25/07/2014 LGK1 251430Z 29302KT 29/21 Q1010 Kanali, Preveza Hepirus
25/07/2014 LGE0 251330Z 13502KT -RA 21/17 Q1012 Katarraktis - Arta Hepirus
25/07/2014 LGO5 251430Z 29303KT 22/16 Q1009 Kerasovo Konitsa Hepirus
23/07/2014 LG3A 230630Z 22502KT 21/18 Q1006 Konitsa Hepirus
25/07/2014 LGO8 251430Z 20301KT 20/16 Q1009 Metsovo Hepirus
13/07/2014 LGK6 131300Z 31500KT 23/18 Q1013 Papigo Hepirus
25/07/2014 LGF6 251130Z 22507KT 26/18 Q1009 Paramythia Hepirus
25/07/2014 LGK9 251430Z 24810KT 28/22 Q1010 Parga Hepirus
25/07/2014 LGK7 251230Z 20302KT 27/19 Q1010 Pesta Hepirus
25/07/2014 LGY9 250730Z 04501KT 21/17 Q1000 Plikati Ioanninon Hepirus
25/07/2014 LGP1 251430Z 02302KT -RA 19/18 Q1011 Pramanta Hepirus
25/07/2014 LGK2 251330Z 29300KT 19/17 Q1012 Theodoriana, Arta Hepirus
25/07/2014 LGD0 250630Z 00000KT 20/17 Q1010 Tristeno - Ioannina Hepirus
25/07/2014 LGM4 251430Z 02303KT 27/18 Q1009 Tyria Hepirus
25/07/2014 LGR8 251430Z 33802KT RA 19/18 Q1010 Vourgareli Artas Hepirus
25/07/2014 LGN9 251130Z 15803KT 19/16 Q1011 Vovoussa Hepirus
25/07/2014 LGN0 251430Z 02300KT 22/19 Q1009 Zitsa Hepirus
25/07/2014 LGJ2 251430Z 31505KT 30/19 Q1009 Corfu - Gouvia Ionio
25/07/2014 LGB0 251430Z 27009KT 27/21 Q1010 Ithaki Ionio
25/07/2014 LGI7 251430Z 27010KT 28/21 Q1012 Lefkada Ionio
25/07/2014 LGN1 251430Z 29309KT 27/21 Q1009 Paxoi Ionio
25/07/2014 LGN4 251430Z 31504KT 31/21 Q1008 Zakynthos Ionio
17/07/2014 LGG9 170930Z 02303KT 25/13 Q1012 Amynteo Macedonia
23/07/2014 LG33 230830Z 22502KT 23/16 Q1004 Chalkidiki - Polygyros Macedonia
25/07/2014 LGJ1 251430Z 06801KT 28/20 Q1010 Chalkidiki - Stratoni Macedonia
25/07/2014 LGZ5 251330Z 02307KT 31/18 Q1009 Didymoteicho Macedonia
25/07/2014 LG55 251430Z 13502KT 30/22 Q1008 Dion Macedonia
25/07/2014 LGU8 251430Z 02302KT 29/20 Q1008 Doxato - Drama Macedonia
25/07/2014 LGH3 251450Z 04705KT 25/20 Q1009 Drama Macedonia
25/07/2014 LGH6 251430Z 02305KT 27/20 Q1008 Drama 2 Macedonia
25/07/2014 LGY3 251430Z 11303KT 31/19 Q1009 Eleutheroupoli Macedonia
27/06/2014 LGJ6 272050Z 15916G27KT 02/02 Q1009 Falakro Macedonia
22/07/2014 LG63 221230Z 00006KT -RA 23/20 Q1006 Florina Macedonia
25/07/2014 LGZ8 251430Z 02307KT 27/20 Q1009 Fotolivos Macedonia
25/07/2014 LG73 251430Z 27003KT 32/21 Q1008 Giannitsa Macedonia
25/07/2014 LGF2 251430Z 13502KT 29/18 Q1009 Grevena Macedonia
25/07/2014 LGO4 251430Z 31503KT 25/18 Q1010 Hmathia - Rizomata Macedonia
25/07/2014 LG93 251430Z 27004KT 14/11 Q1012 Kaimaktsalan Macedonia
27/06/2014 LGN8 272050Z 19217G43KT 32/29 Q979 Kartakla - Falakro Macedonia
25/07/2014 LGO9 251430Z 06804KT 30/22 Q1008 Kassandreia (Xalkidiki) Macedonia
25/07/2014 LG27 251450Z 14900KT 28/20 Q1009 Kavala - Dexameni Macedonia
05/07/2014 LGA2 052147Z 00000KT 01/00 Q1022 Kavala - Eleftheroupoli Macedonia
25/07/2014 LG42 251430Z 29303KT 32/13 Q1006 Kilkis Macedonia
25/07/2014 LGW8 251430Z 31501KT 33/17 Q1009 Kimisi Macedonia
25/07/2014 LGJ4 251430Z 13509KT 24/16 Q1012 Kozani - Ardassa Macedonia
25/07/2014 LGP3 251430Z 11300KT 20/15 Q1010 Lailias - Serres Macedonia
25/07/2014 LGZ9 251430Z 11308G20KT +RA 20/15 Q1009 Mavropigi Macedonia
25/07/2014 LG40 251430Z 22504KT 26/17 Q1009 Naousa Macedonia
25/07/2014 LGZ4 251430Z 18004KT 29/21 Q1008 Neos Marmaras Macedonia
25/07/2014 LG48 251430Z 24803KT 27/16 Q 0 Nevrokopi Drama Macedonia
25/07/2014 LGS4 251430Z 04504KT RA 19/15 Q1009 Notio Pedio - Eordea Macedonia
25/07/2014 LGW0 251430Z 13501KT 24/21 Q1010 Paranesti Macedonia
25/07/2014 LG26 251330Z 20300KT 27/16 Q1007 Ptolemaida Macedonia
25/07/2014 LG87 251430Z 20303KT -RA 15/13 Q1011 Seli Ski Center Macedonia
25/07/2014 LGW6 251030Z 27004KT 31/18 Q1010 Serres Macedonia
23/07/2014 LGD9 231230Z 31500KT -RA 27/21 Q1005 Serres - Kerkini Macedonia
25/07/2014 LG14 250500Z 00000G31104KT 222/178 Q10130 Serres - Proti Macedonia
07/07/2014 LGY8 071419Z 31505KT 9999 SCT036 10/00 Q1010 Thassos Macedonia
25/07/2014 LGR9 251430Z 22503KT 31/22 Q1008 Thessaloniki Macedonia
25/07/2014 LGF0 250130Z 00000KT 18/17 Q1010 Variko Macedonia
28/06/2014 LG82 280230Z 27014KT 03/02 Q1005 Vassilitsa Macedonia
25/07/2014 LGC2 250430Z 20301KT 22/20 Q1008 Vatopedi - Athos Macedonia
25/07/2014 LGE9 251430Z 11303KT -RA 25/19 Q1011 Vegoritida Macedonia
25/07/2014 LGE5 251430Z 00000KT 30/22 Q1006 Veroia Macedonia
25/07/2014 LG98 251430Z 02300KT 21/16 Q1009 Vlasti - Kozani Macedonia
25/07/2014 LGF5 251501Z 02602KT 22/16 Q1009 Vounochori - Kavala Macedonia
25/07/2014 LGU5 251430Z 11303KT 32/21 Q1007 Agioi Theodoroi Peloponissos
25/07/2014 LGU7 251430Z 15800KT -RA 21/19 Q1009 Alagonia - Messinia Peloponissos
25/07/2014 LG52 251430Z 33805KT 31/20 Q1008 Amaliada Peloponissos
25/07/2014 LG77 251430Z 18001KT 21/20 Q1009 Andritsaina Peloponissos
25/07/2014 LGU6 251330Z 18004KT 34/18 Q1009 Arfara - Messinia Peloponissos
25/07/2014 LGT3 251430Z 15804KT 32/20 Q1008 Argos Peloponissos
17/07/2014 LGA8 172100Z 00000KT 00/00 Q 0 Chalandritsa Peloponissos
23/07/2014 LGV0 230330Z 31504KT 24/21 Q1004 Derveni Peloponissos
28/06/2014 LGK4 280630Z 15801KT -RA 03/02 Q1021 Elati Peloponissos
25/07/2014 LGC3 251330Z 31508KT 28/18 Q1008 Foloi - Ilia Peloponissos
25/07/2014 LGX6 251430Z 20304KT 28/17 Q1010 Geraki Peloponissos
24/07/2014 LGB7 240130Z 00000KT 22/15 Q1007 Ilia - Vartholomio Peloponissos
25/07/2014 LG85 251430Z 13510KT 33/17 Q1009 Isthmos Peloponissos
25/07/2014 LG6A 251430Z 22503KT +RA 23/21 Q1010 Kalamata Peloponissos
25/07/2014 LGV7 251430Z 31506KT 28/15 Q1009 Kalavryta Peloponissos
25/07/2014 LGZ3 251430Z 18005KT 27/21 Q1007 Kardamyli Peloponissos
25/07/2014 LGJ5 251430Z 31512KT 27/23 Q1009 Katakolo Peloponissos
25/07/2014 LGP7 251430Z 31502KT 24/18 Q1009 Kato Vlassia Peloponissos
27/06/2014 LGB2 272000Z 20301KT 27/23 Q1011 Katoachaia Peloponissos
23/07/2014 LGB5 230530Z 24805KT 23/20 Q1007 Kavomalias Peloponissos
25/07/2014 LGM7 251430Z 13507KT 31/18 Q1007 Kranidi Peloponissos
25/07/2014 LGV1 251430Z 33802KT 30/22 Q1010 Kyparissia Peloponissos
25/07/2014 LGW9 251430Z 11302KT 20/15 Q1010 Lagadia Peloponissos
24/07/2014 LG92 241030Z 27004KT 28/19 Q1008 Lappa-Larissos-Achaia Peloponissos
07/07/2014 LG91 070630Z 00000KT 21/15 Q1012 Lousika-Olenias-Achaia Peloponissos
25/07/2014 LGV4 251430Z 02305G17KT 24/17 Q1007 Lykochia Peloponissos
25/07/2014 LGG5 251430Z 29302KT -RA 20/19 Q1010 Megalopoli Peloponissos
25/07/2014 LGV2 251430Z 27004KT 27/19 Q1008 Messinia - Kopanaki Peloponissos
25/07/2014 LGF8 251430Z 20308KT 31/19 Q1008 Molaoi Peloponissos
25/07/2014 LG56 251430Z 15802KT 30/20 Q1009 Monemvasia Peloponissos
25/07/2014 LGE1 251430Z 02305KT 32/16 Q1007 Nemea Peloponissos
25/07/2014 LGD5 251430Z 31504KT 31/21 Q1009 Oleni - Ilia Peloponissos
25/07/2014 LGB3 251430Z 24803KT 32/21 Q1009 Olympia Peloponissos
23/07/2014 LGV6 231630Z 00000KT 00/00 Q 0 Panachaiko Oros Peloponissos
25/07/2014 LGZ1 251430Z 33807KT 27/18 Q1009 Patra Peloponissos
23/07/2014 LG79 230505Z 00000G31104KT 240/207 Q10067 Patra - Agia Peloponissos
25/07/2014 LG71 251500Z 3156102G10422KT 292/207 Q10090 Patra - Drosia Peloponissos
25/07/2014 LG84 251430Z 00017KT 27/22 Q1010 Patra - Port Peloponissos
25/07/2014 LG59 251330Z 27008KT 31/21 Q1007 Pirgos Peloponissos
23/07/2014 LGH8 230430Z 31503KT 23/21 Q1007 Rio Peloponissos
25/07/2014 LGT9 251430Z 33804KT 29/20 Q1009 Romanos - Patra Peloponissos
25/07/2014 LGA0 251430Z 31504KT 31/22 Q1008 Sagaiika Peloponissos
25/07/2014 LGF7 251430Z 27003KT -RA 23/20 Q1011 Sparti Peloponissos
25/07/2014 LGS2 251430Z 00000KT +RA 17/15 Q1011 Stemnitsa Peloponissos
25/07/2014 LGR1 251430Z 04505KT 25/14 Q1007 Trikala Korinthias Peloponissos
25/07/2014 LG83 251430Z 18003KT 23/19 Q1010 Tripoli Peloponissos
25/07/2014 LGU9 251430Z 18000KT 19/17 Q1010 Vytina Peloponissos
25/07/2014 LG86 251430Z 18003KT 29/23 Q1009 Zaxaro Peloponissos
23/07/2014 LGN2 232030Z 31504KT 26/22 Q1008 Alonissos Sporades
25/07/2014 LGI1 251430Z 31510KT 29/20 Q1009 Skyros Sporades
25/07/2014 LGH9 251430Z 11307KT 23/18 Q1013 Agrinio Sterea Ellada
25/07/2014 LGC7 251430Z 06811KT 30/18 Q1009 Aitoliko Sterea Ellada
25/07/2014 LG29 251430Z 18004KT -RA 22/20 Q1009 Amfiklia Sterea Ellada
25/07/2014 LGH1 250600Z 00000G31104KT 240/158 Q10099 Amfiklia 2 Sterea Ellada
25/07/2014 LGG8 251430Z 31508KT 27/19 Q1011 Antikira Sterea Ellada
25/07/2014 LG97 251510Z 07002KT 20/13 Q1010 P0004 Arachova Sterea Ellada
25/07/2014 LGC5 251330Z 13503KT 23/15 Q1011 Arahova Sterea Ellada
25/07/2014 LGH0 251430Z 02307KT 33/18 Q1007 Avlida Sterea Ellada
25/07/2014 LGR2 251430Z 13502KT -RA 23/20 Q1009 Dam of Mornos Sterea Ellada
25/07/2014 LGR3 251430Z 09000KT RA 19/18 Q1011 Diakopi of Lidoriki Sterea Ellada
25/07/2014 LGW5 251430Z 09003KT 27/17 Q1009 Domokos Sterea Ellada
14/07/2014 LG21 141323Z 24804KT 29/15 Q1014 Evia - Chalkida Sterea Ellada
25/07/2014 LGY4 251430Z 27006KT 31/16 Q1009 Galaxidi Sterea Ellada
25/07/2014 LGC8 251500Z 112864G3456KT 213/196 Q10086 Gavalou - Aitol/nia Sterea Ellada
25/07/2014 LGJ7 251430Z 00003KT 32/18 Q1010 Kaparelli Sterea Ellada
25/07/2014 LGC9 251230Z 33802KT -RA 19/16 Q1012 Karpenisi Sterea Ellada
25/07/2014 LGP9 251430Z 00004KT 31/16 Q1006 Kleidi Viotias Sterea Ellada
25/07/2014 LGR4 251430Z 27000KT -RA 20/18 Q1010 Koniakos of Lidoriki Sterea Ellada
25/07/2014 LG5A 251430Z 04508KT 32/16 Q1008 Kopaida Sterea Ellada
25/07/2014 LGV9 251330Z 04507KT RA 26/19 Q1009 Lamia Sterea Ellada
25/07/2014 LGJ8 251330Z 11302KT 31/18 Q1007 Lefkochori Sterea Ellada
19/07/2014 LGI8 192330Z 31503KT 20/17 Q1013 Livadeia Sterea Ellada
25/07/2014 LGE7 251430Z 11304KT -RA 27/20 Q1008 Makrakomi Sterea Ellada
25/07/2014 LGA6 251430Z 22501KT 17/15 Q1010 Mavrolithari - Vardousia Sterea Ellada
25/07/2014 LGK8 251430Z 24801KT 16/15 Q1009 Myriki Sterea Ellada
25/07/2014 LGG4 251430Z 29301KT RA 19/17 Q1010 Orini Nafpaktia Sterea Ellada
01/07/2014 LGA4 010700Z 09009KT -SN 02/M02 Q1009 Parnassos Sterea Ellada
27/06/2014 LGF9 271430Z 00000KT 03/02 Q1011 Parnassos1950 Sterea Ellada
25/07/2014 LGL0 251430Z 15807G23KT +RA 24/18 Q1011 Polydroso Sterea Ellada
07/07/2014 LGR7 071230Z 04508KT 11/09 Q1025 Prasino - Viotia Sterea Ellada
25/07/2014 LG69 251430Z 00006KT 33/17 Q1008 Tanagra Sterea Ellada
25/07/2014 LGO6 251430Z 04504KT 32/21 Q1008 Theologos Sterea Ellada
13/07/2014 LG94 131630Z 00000KT 262/176 Q10100 Hortiatis Thes/niki
25/07/2014 LG15 251513Z 20405KT 31/04 Q1009 Kamara Thes/niki Thes/niki
13/07/2014 LGA5 132200Z 24800KT 17/16 Q1011 Lagadas Thes/niki
24/07/2014 LG11 240730Z 12901KT 10/06 Q1006 West Thes/niki Thes/niki
20/07/2014 LGV5 200530Z 02301KT 21/17 Q1012 Tsamantas Thesprotia
25/07/2014 LGL4 251430Z 09000KT -RA 16/14 Q1012 Gardiki Thessalia
25/07/2014 LGW3 251030Z 13501KT 30/17 Q1008 Kalabaka Thessalia
25/07/2014 LG2A 251430Z 29305KT 29/20 Q1009 Karditsa Thessalia
25/07/2014 LGL6 251430Z 06801KT 32/18 Q1007 Larissa Thessalia
25/07/2014 LG41 251450Z 0903456G10422KT 328/149 Q10064 Larissa Thessalia
25/07/2014 LGU3 251340Z 315864G3456KT 324/182 Q10064 Larissa Thessalia
25/07/2014 LGS8 251430Z 11303KT 29/19 Q1008 Larissa - Agia Thessalia
28/06/2014 LGL7 282200Z 24812KT 16/05 Q1014 Limni Plastira Thessalia
26/06/2014 LGU4 260700Z 29304KT 04/M07 Q1013 Olympos Thessalia
25/07/2014 LG7A 251505Z 1575238G8694KT 288/208 Q10090 Pedio Areos Volou Thessalia
25/07/2014 LGE2 251430Z 24803KT 16/14 Q1009 Pertouli Thessalia
25/07/2014 LGY2 251430Z 18002KT 27/18 Q1009 Portaria - Pelio Thessalia
25/07/2014 LG80 251430Z 04504KT 28/22 Q1012 Skopelos - Sporades Thessalia
25/07/2014 LG24 251430Z 02303KT 29/23 Q1009 Sporades - Skiathos Thessalia
25/07/2014 LG57 251430Z 29300KT 29/17 Q1009 Trikala Thessalia
25/07/2014 LG51 251430Z 18003KT 31/23 Q1008 Volos Thessalia
25/07/2014 LGG3 251330Z 06802KT 26/20 Q1011 Zagora EAA Thessalia
25/07/2014 LGD8 250930Z 04506KT 31/20 Q1011 Alexandroupolis Thraki
15/07/2014 LGM9 151330Z 22505KT 28/19 Q1005 Imeros Thraki
25/07/2014 LG35 251510Z 15705KT 27/22 Q1008 Komotini Thraki
25/07/2014 LGL2 251430Z 04505KT 31/18 Q1009 Metaxades - Evros Thraki
25/07/2014 LG31 251430Z 02302KT 31/16 Q1008 Orestiada Thraki
25/07/2014 LGC1 251430Z 22506KT 30/22 Q1009 Samothraki Thraki
25/07/2014 LGC6 251430Z 24806KT -RA 27/22 Q1009 Xanthi Thraki
www.meteorologia.gr